Time;durP1;ratioP1;P1;durP2;ratioP2;P2;SDS_P1;SDS_P2;PMS_P1;PMS_P2;Temp;Humidity;BMP_temperature;BMP_pressure;BME280_temperature;BME280_humidity;BME280_pressure;Samples;Min_cycle;Max_cycle;Signal;HPM_P1;HPM_P2
2023/04/27 00:00:09;;;;;;;1.40;1.40;;;18.30;66.50;;;;;;5062737;28;44044;-78
2023/04/27 00:02:38;;;;;;;1.40;1.40;;;18.30;66.60;;;;;;5065492;28;43407;-77
2023/04/27 00:05:07;;;;;;;1.50;1.50;;;18.30;66.60;;;;;;5066757;28;43684;-77
2023/04/27 00:07:35;;;;;;;1.30;1.30;;;18.30;66.60;;;;;;5058447;28;45379;-77
2023/04/27 00:10:04;;;;;;;1.30;1.30;;;18.30;66.60;;;;;;5072935;28;44754;-78
2023/04/27 00:12:32;;;;;;;1.30;1.30;;;18.20;66.60;;;;;;5066856;28;43724;-78
2023/04/27 00:15:00;;;;;;;1.30;1.30;;;18.20;66.80;;;;;;5065844;28;43494;-77
2023/04/27 00:17:29;;;;;;;1.23;1.23;;;18.20;67.00;;;;;;5060392;28;46021;-77
2023/04/27 00:19:59;;;;;;;1.40;1.40;;;18.20;66.90;;;;;;5055821;28;43914;-78
2023/04/27 00:22:29;;;;;;;1.13;1.13;;;18.20;67.00;;;;;;5065786;28;43463;-77
2023/04/27 00:24:57;;;;;;;1.37;1.37;;;18.20;67.00;;;;;;5069295;28;43788;-78
2023/04/27 00:27:25;;;;;;;1.20;1.20;;;18.10;67.00;;;;;;5066839;28;45906;-77
2023/04/27 00:29:53;;;;;;;1.43;1.43;;;18.10;67.20;;;;;;5066973;28;44712;-77
2023/04/27 00:32:21;;;;;;;1.20;1.20;;;18.10;67.10;;;;;;5067412;28;43913;-77
2023/04/27 00:34:51;;;;;;;1.60;1.60;;;18.10;67.00;;;;;;5068849;28;43458;-77
2023/04/27 00:37:19;;;;;;;1.33;1.33;;;18.10;67.00;;;;;;5066185;28;46084;-77
2023/04/27 00:39:47;;;;;;;1.20;1.20;;;18.10;67.00;;;;;;5061883;28;43313;-77
2023/04/27 00:42:18;;;;;;;1.30;1.30;;;18.10;67.20;;;;;;5067408;28;43607;-77
2023/04/27 00:44:46;;;;;;;1.50;1.50;;;18.10;67.40;;;;;;5067777;28;43542;-78
2023/04/27 00:47:16;;;;;;;1.20;1.20;;;18.10;67.10;;;;;;5067166;28;46017;-77
2023/04/27 00:49:44;;;;;;;1.20;1.20;;;18.20;66.90;;;;;;5063516;28;44017;-77
2023/04/27 00:52:13;;;;;;;1.20;1.20;;;18.40;66.70;;;;;;5062649;28;43713;-78
2023/04/27 00:54:42;;;;;;;1.30;1.30;;;18.40;66.50;;;;;;5067956;28;43423;-78
2023/04/27 00:57:15;;;;;;;1.43;1.43;;;18.40;66.50;;;;;;5067509;28;46105;-77
2023/04/27 00:59:45;;;;;;;1.43;1.43;;;18.30;66.60;;;;;;5067593;28;43376;-76
2023/04/27 01:02:14;;;;;;;1.43;1.43;;;18.30;66.60;;;;;;5060808;28;43985;-77
2023/04/27 01:04:42;;;;;;;1.23;1.23;;;18.30;66.60;;;;;;5062335;28;43571;-77
2023/04/27 01:07:10;;;;;;;1.27;1.27;;;18.30;66.60;;;;;;5064961;28;45768;-77
2023/04/27 01:09:39;;;;;;;1.40;1.40;;;18.20;66.60;;;;;;5066913;28;44014;-78
2023/04/27 01:12:09;;;;;;;1.13;1.13;;;18.20;66.70;;;;;;5061714;28;43501;-77
2023/04/27 01:14:37;;;;;;;1.50;1.50;;;18.20;67.00;;;;;;5068078;28;43477;-78
2023/04/27 01:17:06;;;;;;;1.30;1.30;;;18.20;67.00;;;;;;5066857;28;45467;-77
2023/04/27 01:19:39;;;;;;;1.20;1.20;;;18.20;67.00;;;;;;5066854;28;43352;-76
2023/04/27 01:22:07;;;;;;;1.20;1.20;;;18.20;67.00;;;;;;5062460;28;43499;-77
2023/04/27 01:24:36;;;;;;;1.40;1.40;;;18.10;67.00;;;;;;5067439;28;43413;-77
2023/04/27 01:27:05;;;;;;;1.50;1.50;;;18.10;67.00;;;;;;5066794;28;46714;-78
2023/04/27 01:29:33;;;;;;;1.40;1.40;;;18.10;67.20;;;;;;5066444;28;45133;-77
2023/04/27 01:32:02;;;;;;;1.50;1.50;;;18.20;67.10;;;;;;5066977;28;43313;-77
2023/04/27 01:34:30;;;;;;;1.80;1.70;;;18.30;66.80;;;;;;5065992;28;43586;-77
2023/04/27 01:36:58;;;;;;;1.40;1.40;;;18.30;66.60;;;;;;5067365;28;43587;-77
2023/04/27 01:39:26;;;;;;;1.40;1.40;;;18.30;66.60;;;;;;5065311;28;44749;-78
2023/04/27 01:41:56;;;;;;;1.53;1.53;;;18.30;66.60;;;;;;5066134;28;43621;-78
2023/04/27 01:44:25;;;;;;;1.50;1.50;;;18.20;66.70;;;;;;5068502;28;43630;-78
2023/04/27 01:46:54;;;;;;;1.40;1.40;;;18.30;66.70;;;;;;5066178;28;45755;-77
2023/04/27 01:49:22;;;;;;;1.33;1.33;;;18.20;66.70;;;;;;5060989;28;44430;-77
2023/04/27 01:51:50;;;;;;;1.43;1.43;;;18.20;66.70;;;;;;5059742;28;43408;-77
2023/04/27 01:54:18;;;;;;;1.40;1.40;;;18.20;66.80;;;;;;5062996;28;43354;-78
2023/04/27 01:56:46;;;;;;;1.33;1.33;;;18.20;66.90;;;;;;5064671;28;45588;-77
2023/04/27 01:59:16;;;;;;;1.50;1.50;;;18.10;67.00;;;;;;5066126;28;44723;-77
2023/04/27 02:01:44;;;;;;;1.50;1.50;;;18.20;67.00;;;;;;5065672;28;43420;-77
2023/04/27 02:04:12;;;;;;;1.40;1.40;;;18.20;67.00;;;;;;5063131;28;43894;-77
2023/04/27 02:06:40;;;;;;;1.50;1.50;;;18.10;66.90;;;;;;5066460;28;43814;-78
2023/04/27 02:09:09;;;;;;;1.60;1.60;;;18.10;67.00;;;;;;5066027;28;45155;-77
2023/04/27 02:11:40;;;;;;;1.40;1.40;;;18.10;67.20;;;;;;5068269;28;43391;-78
2023/04/27 02:14:08;;;;;;;1.30;1.30;;;18.10;67.20;;;;;;5070055;28;43542;-77
2023/04/27 02:16:37;;;;;;;1.60;1.60;;;18.20;67.70;;;;;;5068752;28;46056;-77
2023/04/27 02:19:05;;;;;;;1.77;1.77;;;18.30;66.60;;;;;;5071290;28;43415;-77
2023/04/27 02:21:33;;;;;;;1.47;1.47;;;18.30;66.40;;;;;;5069152;28;44094;-77
2023/04/27 02:24:01;;;;;;;1.27;1.27;;;18.30;66.30;;;;;;5070420;28;43487;-77
2023/04/27 02:26:29;;;;;;;1.60;1.60;;;18.30;66.60;;;;;;5058216;28;43863;-77
2023/04/27 02:28:58;;;;;;;1.30;1.30;;;18.30;66.60;;;;;;5061855;28;44621;-77
2023/04/27 02:31:27;;;;;;;1.40;1.40;;;18.30;67.30;;;;;;5060644;28;43690;-77
2023/04/27 02:33:56;;;;;;;1.50;1.50;;;18.30;66.60;;;;;;5064558;28;43510;-77
2023/04/27 02:36:26;;;;;;;1.50;1.50;;;18.20;66.60;;;;;;5065586;28;45785;-78
2023/04/27 02:38:55;;;;;;;1.53;1.53;;;18.20;66.70;;;;;;5061946;28;44360;-78
2023/04/27 02:41:23;;;;;;;1.60;1.50;;;18.20;67.00;;;;;;5069114;28;44448;-77
2023/04/27 02:43:53;;;;;;;1.60;1.60;;;18.10;67.00;;;;;;5068754;28;43967;-77
2023/04/27 02:46:24;;;;;;;1.43;1.43;;;18.20;67.00;;;;;;5054779;28;45753;-78
2023/04/27 02:48:54;;;;;;;1.40;1.40;;;18.10;66.90;;;;;;5063561;28;43431;-77
2023/04/27 02:51:24;;;;;;;1.40;1.40;;;18.10;67.00;;;;;;5061447;28;43400;-78
2023/04/27 02:53:53;;;;;;;1.33;1.33;;;18.10;67.10;;;;;;5059231;28;43476;-78
2023/04/27 02:56:21;;;;;;;1.50;1.50;;;18.10;67.30;;;;;;5067716;28;46072;-77
2023/04/27 02:58:49;;;;;;;1.60;1.60;;;18.10;67.10;;;;;;5063307;28;44885;-77
2023/04/27 03:01:17;;;;;;;1.50;1.50;;;18.10;67.10;;;;;;5069525;28;43415;-77
2023/04/27 03:03:48;;;;;;;1.53;1.53;;;18.10;67.10;;;;;;5069874;28;43369;-77
2023/04/27 03:06:16;;;;;;;1.67;1.67;;;18.10;67.10;;;;;;5066294;28;46036;-78
2023/04/27 03:08:45;;;;;;;1.37;1.37;;;18.10;67.30;;;;;;5066261;28;44005;-79
2023/04/27 03:11:13;;;;;;;1.40;1.40;;;18.00;67.30;;;;;;5060918;28;43464;-77
2023/04/27 03:13:41;;;;;;;1.40;1.40;;;18.10;67.20;;;;;;5063413;28;43672;-77
2023/04/27 03:16:10;;;;;;;1.27;1.27;;;18.20;66.90;;;;;;5067765;28;47557;-77
2023/04/27 03:18:39;;;;;;;1.30;1.30;;;18.30;66.60;;;;;;5068817;28;43771;-78
2023/04/27 03:21:08;;;;;;;1.30;1.30;;;18.40;66.40;;;;;;5066879;28;44117;-77
2023/04/27 03:23:36;;;;;;;1.30;1.30;;;18.30;66.30;;;;;;5068061;28;43577;-78
2023/04/27 03:26:09;;;;;;;1.50;1.50;;;18.30;66.60;;;;;;5067265;28;45718;-78
2023/04/27 03:28:37;;;;;;;1.50;1.50;;;18.30;66.50;;;;;;5069781;28;43895;-78
2023/04/27 03:31:06;;;;;;;1.40;1.40;;;18.30;66.40;;;;;;5061425;28;43475;-79
2023/04/27 03:33:35;;;;;;;1.30;1.30;;;18.30;66.60;;;;;;5065942;28;43493;-78
2023/04/27 03:36:03;;;;;;;1.43;1.43;;;18.30;66.60;;;;;;5061060;28;43762;-78
2023/04/27 03:38:31;;;;;;;1.43;1.43;;;18.20;66.50;;;;;;5056579;28;43348;-77
2023/04/27 03:40:59;;;;;;;1.43;1.43;;;18.20;66.90;;;;;;5062799;28;43452;-77
2023/04/27 03:43:29;;;;;;;1.40;1.40;;;18.20;66.70;;;;;;5060574;28;43539;-78
2023/04/27 03:46:00;;;;;;;1.43;1.43;;;18.20;67.40;;;;;;5063654;28;43892;-79
2023/04/27 03:48:28;;;;;;;1.47;1.47;;;18.20;66.70;;;;;;5065075;28;45144;-77
2023/04/27 03:50:56;;;;;;;1.50;1.50;;;18.20;66.80;;;;;;5066568;28;43952;-77
2023/04/27 03:53:25;;;;;;;1.57;1.57;;;18.10;66.80;;;;;;5063448;28;43441;-77
2023/04/27 03:55:53;;;;;;;1.30;1.30;;;18.10;67.10;;;;;;5056966;28;46011;-78
2023/04/27 03:58:23;;;;;;;1.40;1.40;;;18.10;66.90;;;;;;5057678;28;44845;-77
2023/04/27 04:01:09;;;;;;;1.30;1.30;;;18.10;66.90;;;;;;5061045;28;43338;-77
2023/04/27 04:03:38;;;;;;;1.27;1.27;;;18.10;66.90;;;;;;5056083;28;43432;-77
2023/04/27 04:06:08;;;;;;;1.33;1.33;;;18.10;66.90;;;;;;5054612;28;44372;-77
2023/04/27 04:08:36;;;;;;;1.30;1.30;;;18.10;67.10;;;;;;5062681;28;43925;-78
2023/04/27 04:11:04;;;;;;;1.40;1.40;;;18.10;67.10;;;;;;5060644;28;43427;-78
2023/04/27 04:13:34;;;;;;;1.40;1.40;;;18.20;66.90;;;;;;5054715;28;43588;-78
2023/04/27 04:16:04;;;;;;;1.60;1.50;;;18.30;66.60;;;;;;5062484;28;44006;-80
2023/04/27 04:18:34;;;;;;;1.30;1.30;;;18.40;66.30;;;;;;5060020;28;45096;-78
2023/04/27 04:21:02;;;;;;;1.30;1.30;;;18.40;66.10;;;;;;5062605;28;43495;-79
2023/04/27 04:23:31;;;;;;;1.53;1.53;;;18.40;66.40;;;;;;5051307;28;43436;-78
2023/04/27 04:26:00;;;;;;;1.30;1.30;;;18.40;66.40;;;;;;5064454;28;43734;-78
2023/04/27 04:28:33;;;;;;;1.40;1.40;;;18.40;66.20;;;;;;5056232;28;43384;-79
2023/04/27 04:31:01;;;;;;;1.30;1.30;;;18.30;66.10;;;;;;5057757;28;43435;-78
2023/04/27 04:33:30;;;;;;;1.10;1.10;;;18.30;66.20;;;;;;5059179;28;43419;-78
2023/04/27 04:36:01;;;;;;;1.33;1.33;;;18.20;66.40;;;;;;5057144;28;46204;-77
2023/04/27 04:38:29;;;;;;;1.33;1.33;;;18.20;66.70;;;;;;5065585;28;44350;-77
2023/04/27 04:40:58;;;;;;;1.33;1.33;;;18.20;66.70;;;;;;5060629;28;43400;-77
2023/04/27 04:43:26;;;;;;;1.57;1.37;;;18.20;66.60;;;;;;5065860;28;43407;-77
2023/04/27 04:45:54;;;;;;;1.30;1.30;;;18.20;66.70;;;;;;5056759;28;45749;-79
2023/04/27 04:48:22;;;;;;;1.30;1.30;;;18.20;66.70;;;;;;5053620;28;43612;-77
2023/04/27 04:50:51;;;;;;;1.30;1.30;;;18.10;66.80;;;;;;5063156;28;43440;-77
2023/04/27 04:53:20;;;;;;;1.27;1.27;;;18.10;67.00;;;;;;5064045;28;43993;-77
2023/04/27 04:55:48;;;;;;;1.40;1.40;;;18.20;67.00;;;;;;5061826;28;46293;-77
2023/04/27 04:58:16;;;;;;;1.43;1.43;;;18.30;66.70;;;;;;5064292;28;45010;-77
2023/04/27 05:00:44;;;;;;;1.30;1.30;;;18.30;66.60;;;;;;5064763;28;43333;-77
2023/04/27 05:03:13;;;;;;;1.30;1.30;;;18.30;66.20;;;;;;5063660;28;43514;-78
2023/04/27 05:05:41;;;;;;;1.40;1.40;;;18.20;66.40;;;;;;5066296;28;45959;-78
2023/04/27 05:08:09;;;;;;;1.37;1.37;;;18.20;66.70;;;;;;5064731;28;43440;-77
2023/04/27 05:10:38;;;;;;;1.30;1.30;;;18.20;66.40;;;;;;5066669;28;43321;-77
2023/04/27 05:13:06;;;;;;;1.30;1.30;;;18.20;66.40;;;;;;5064474;28;43405;-79
2023/04/27 05:15:35;;;;;;;1.20;1.20;;;18.20;66.60;;;;;;5063405;28;46110;-78
2023/04/27 05:18:03;;;;;;;1.20;1.20;;;18.20;66.70;;;;;;5065250;28;43478;-78
2023/04/27 05:20:31;;;;;;;1.20;1.20;;;18.10;66.80;;;;;;5068604;28;44107;-77
2023/04/27 05:22:59;;;;;;;1.30;1.30;;;18.10;67.00;;;;;;5063682;28;43589;-78
2023/04/27 05:25:29;;;;;;;1.30;1.30;;;18.10;66.70;;;;;;5067489;28;43762;-78
2023/04/27 05:27:59;;;;;;;1.37;1.37;;;18.10;66.70;;;;;;5065239;28;45195;-78
2023/04/27 05:30:27;;;;;;;1.23;1.23;;;18.10;66.70;;;;;;5062321;28;43352;-78
2023/04/27 05:32:55;;;;;;;1.40;1.40;;;18.10;66.80;;;;;;5065962;28;43698;-78
2023/04/27 05:35:23;;;;;;;1.30;1.30;;;18.10;66.80;;;;;;5063866;28;45994;-78
2023/04/27 05:37:52;;;;;;;1.40;1.40;;;18.10;67.10;;;;;;5063016;28;45183;-78
2023/04/27 05:40:20;;;;;;;1.50;1.50;;;18.20;67.00;;;;;;5067813;28;43416;-78
2023/04/27 05:42:48;;;;;;;1.30;1.30;;;18.30;66.60;;;;;;5066284;28;43562;-78
2023/04/27 05:45:18;;;;;;;1.27;1.27;;;18.40;66.40;;;;;;5074033;28;45705;-78
2023/04/27 05:47:46;;;;;;;1.30;1.30;;;18.40;66.10;;;;;;5076337;28;43417;-77
2023/04/27 05:50:14;;;;;;;1.40;1.40;;;18.30;66.10;;;;;;5072904;28;43476;-78
2023/04/27 05:52:42;;;;;;;1.30;1.30;;;18.30;66.40;;;;;;5076409;28;43463;-77
2023/04/27 05:55:12;;;;;;;1.30;1.30;;;18.30;66.20;;;;;;5077371;28;43800;-77
2023/04/27 05:57:41;;;;;;;1.87;1.30;;;18.30;66.20;;;;;;5076053;28;44970;-77
2023/04/27 06:00:11;;;;;;;1.30;1.30;;;18.30;66.30;;;;;;5077399;28;43446;-78
2023/04/27 06:02:40;;;;;;;1.40;1.40;;;18.20;66.40;;;;;;5078854;28;43513;-77
2023/04/27 06:05:09;;;;;;;1.30;1.30;;;18.20;66.40;;;;;;5075923;28;45950;-77
2023/04/27 06:07:38;;;;;;;1.30;1.30;;;18.20;66.80;;;;;;5076354;28;43442;-77
2023/04/27 06:10:07;;;;;;;1.30;1.30;;;18.20;66.60;;;;;;5070619;28;43383;-78
2023/04/27 06:12:35;;;;;;;1.20;1.20;;;18.20;66.70;;;;;;5065788;28;43452;-77
2023/04/27 06:15:07;;;;;;;1.17;1.17;;;18.10;66.60;;;;;;5070344;28;43923;-78
2023/04/27 06:17:35;;;;;;;1.40;1.40;;;18.10;66.70;;;;;;5075497;28;43763;-77
2023/04/27 06:20:07;;;;;;;1.30;1.30;;;18.10;66.90;;;;;;5075311;28;43399;-78
2023/04/27 06:22:35;;;;;;;1.40;1.40;;;18.10;66.80;;;;;;5077913;28;43489;-78
2023/04/27 06:25:04;;;;;;;1.20;1.20;;;18.10;66.80;;;;;;5076630;28;43907;-78
2023/04/27 06:27:32;;;;;;;1.17;1.17;;;18.10;66.70;;;;;;5076821;28;43475;-78
2023/04/27 06:30:00;;;;;;;1.20;1.20;;;18.10;66.70;;;;;;5075149;28;43401;-78
2023/04/27 06:32:28;;;;;;;1.20;1.20;;;18.10;66.80;;;;;;5073133;28;43399;-77
2023/04/27 06:34:56;;;;;;;1.50;1.50;;;18.10;67.10;;;;;;5073543;28;45874;-78
2023/04/27 06:37:26;;;;;;;1.37;1.37;;;18.10;67.00;;;;;;5074343;28;43445;-77
2023/04/27 06:39:54;;;;;;;1.53;1.53;;;18.20;66.80;;;;;;5075240;28;43444;-78
2023/04/27 06:42:22;;;;;;;1.27;1.27;;;18.30;66.60;;;;;;5074870;28;43463;-78
2023/04/27 06:44:53;;;;;;;1.40;1.40;;;18.40;66.20;;;;;;5066341;28;44100;-78
2023/04/27 06:47:21;;;;;;;1.40;1.40;;;18.40;66.10;;;;;;5073455;28;43343;-77
2023/04/27 06:49:49;;;;;;;1.20;1.20;;;18.30;66.20;;;;;;5065609;28;43332;-77
2023/04/27 06:52:17;;;;;;;1.50;1.50;;;18.30;66.30;;;;;;5071181;28;43463;-78
2023/04/27 06:54:47;;;;;;;1.30;1.30;;;18.30;66.20;;;;;;5069081;28;45528;-77
2023/04/27 06:57:15;;;;;;;1.23;1.23;;;18.30;66.30;;;;;;5075851;28;43374;-78
2023/04/27 06:59:44;;;;;;;1.20;1.20;;;18.30;66.40;;;;;;5070450;28;43458;-77
2023/04/27 07:02:12;;;;;;;1.27;1.27;;;18.20;66.40;;;;;;5066963;28;43883;-78
2023/04/27 07:04:40;;;;;;;1.40;1.40;;;18.20;66.60;;;;;;5073018;28;46028;-78
2023/04/27 07:07:08;;;;;;;1.20;1.20;;;18.20;66.80;;;;;;5072322;28;43433;-77
2023/04/27 07:09:38;;;;;;;1.20;1.20;;;18.10;66.70;;;;;;5060568;28;44015;-77
2023/04/27 07:12:07;;;;;;;1.30;1.30;;;18.10;66.70;;;;;;5069510;28;43400;-77
2023/04/27 07:14:35;;;;;;;1.10;1.10;;;18.10;66.70;;;;;;5068482;28;45653;-78
2023/04/27 07:17:03;;;;;;;1.30;1.30;;;18.10;66.90;;;;;;5074363;28;43445;-77
2023/04/27 07:19:31;;;;;;;1.20;1.20;;;18.10;67.00;;;;;;5071165;28;43468;-78
2023/04/27 07:22:00;;;;;;;1.10;1.10;;;18.10;67.00;;;;;;5072141;28;43550;-78
2023/04/27 07:24:28;;;;;;;1.40;1.40;;;18.10;67.00;;;;;;5071726;28;45650;-78
2023/04/27 07:26:56;;;;;;;1.30;1.30;;;18.10;67.00;;;;;;5068041;28;43420;-78
2023/04/27 07:29:26;;;;;;;1.50;1.50;;;18.10;67.00;;;;;;5071063;28;43413;-78
2023/04/27 07:31:55;;;;;;;1.20;1.20;;;18.10;67.00;;;;;;5068004;28;43590;-78
2023/04/27 07:34:23;;;;;;;1.47;1.47;;;18.00;67.10;;;;;;5070085;28;45641;-78
2023/04/27 07:36:52;;;;;;;1.10;1.10;;;18.10;67.10;;;;;;5058149;28;44880;-78
2023/04/27 07:39:21;;;;;;;1.40;1.40;;;18.20;66.80;;;;;;5087251;27;43496;-78
2023/04/27 07:41:49;;;;;;;1.33;1.33;;;18.30;66.60;;;;;;5077089;28;43473;-78
2023/04/27 07:44:18;;;;;;;1.20;1.20;;;18.30;66.20;;;;;;5074767;28;45466;-77
2023/04/27 07:46:48;;;;;;;1.10;1.10;;;18.30;66.10;;;;;;5074956;28;43360;-78
2023/04/27 07:49:16;;;;;;;1.20;1.20;;;18.30;66.30;;;;;;5067938;28;43454;-77
2023/04/27 07:51:44;;;;;;;1.30;1.30;;;18.30;66.40;;;;;;5076494;28;43355;-78
2023/04/27 07:54:12;;;;;;;1.03;1.03;;;18.30;66.20;;;;;;5073205;28;45461;-78
2023/04/27 07:56:41;;;;;;;1.30;1.30;;;18.30;66.30;;;;;;5069442;28;43417;-77
2023/04/27 07:59:09;;;;;;;1.27;1.27;;;18.30;66.50;;;;;;5067147;28;43661;-77
2023/04/27 08:01:38;;;;;;;1.60;1.50;;;18.20;66.40;;;;;;5066224;28;43597;-80
2023/04/27 08:04:08;;;;;;;1.50;1.50;;;18.20;66.70;;;;;;5063943;28;44772;-76
2023/04/27 08:06:36;;;;;;;1.80;1.70;;;18.20;66.70;;;;;;5068199;28;44688;-77
2023/04/27 08:09:06;;;;;;;1.67;1.67;;;18.20;66.50;;;;;;5070022;28;43460;-77
2023/04/27 08:11:34;;;;;;;1.90;1.80;;;18.10;66.50;;;;;;5060941;28;43416;-77
2023/04/27 08:14:02;;;;;;;5.73;2.83;;;18.10;66.50;;;;;;5071066;28;45649;-78
2023/04/27 08:16:31;;;;;;;7.33;3.17;;;18.10;66.70;;;;;;5062079;28;43375;-78
2023/04/27 08:19:00;;;;;;;9.93;4.27;;;18.10;66.70;;;;;;5065853;28;43984;-77
2023/04/27 08:21:29;;;;;;;7.50;3.90;;;18.10;66.60;;;;;;5068076;28;43438;-77
2023/04/27 08:23:57;;;;;;;4.97;3.60;;;18.10;66.70;;;;;;5070599;28;45523;-77
2023/04/27 08:26:25;;;;;;;7.63;3.17;;;18.10;66.70;;;;;;5070471;28;44671;-77
2023/04/27 08:28:55;;;;;;;10.50;4.50;;;18.10;66.70;;;;;;5072184;28;43385;-77
2023/04/27 08:31:23;;;;;;;11.83;4.90;;;18.00;66.60;;;;;;5065964;28;43472;-78
2023/04/27 08:33:51;;;;;;;13.60;4.90;;;18.10;66.70;;;;;;5070065;28;43810;-77
2023/04/27 08:36:19;;;;;;;12.40;4.93;;;18.10;66.40;;;;;;5052958;28;44035;-78
2023/04/27 08:38:50;;;;;;;10.43;4.60;;;18.20;66.10;;;;;;5067994;28;43386;-77
2023/04/27 08:41:19;;;;;;;10.27;4.97;;;18.30;65.80;;;;;;5059682;28;44004;-77
2023/04/27 08:43:49;;;;;;;9.70;4.50;;;18.30;65.80;;;;;;5064107;28;44335;-78
2023/04/27 08:46:20;;;;;;;9.10;4.87;;;18.20;65.80;;;;;;5065568;28;43526;-77
2023/04/27 08:48:50;;;;;;;8.77;4.87;;;18.20;65.80;;;;;;5070175;28;43415;-77
2023/04/27 08:51:18;;;;;;;11.20;5.07;;;18.20;65.80;;;;;;5070577;28;43465;-77
2023/04/27 08:53:49;;;;;;;9.13;4.67;;;18.20;66.00;;;;;;5070143;28;45187;-77
2023/04/27 08:56:17;;;;;;;8.90;4.40;;;18.20;66.20;;;;;;5072186;28;43379;-77
2023/04/27 08:58:45;;;;;;;10.73;4.33;;;18.10;66.20;;;;;;5071402;28;43434;-77
2023/04/27 09:01:13;;;;;;;13.47;5.33;;;18.10;66.40;;;;;;5071293;28;43429;-77
2023/04/27 09:03:41;;;;;;;9.07;4.87;;;18.10;66.40;;;;;;5065705;28;46514;-77
2023/04/27 09:06:09;;;;;;;10.13;4.93;;;18.10;66.40;;;;;;5069475;28;44697;-77
2023/04/27 09:08:42;;;;;;;7.97;4.47;;;18.10;66.40;;;;;;5071848;28;43345;-78
2023/04/27 09:11:12;;;;;;;9.00;4.47;;;18.00;66.30;;;;;;5070481;28;43507;-77
2023/04/27 09:13:40;;;;;;;10.23;4.90;;;18.00;66.40;;;;;;5066714;28;45855;-77
2023/04/27 09:16:09;;;;;;;13.30;5.50;;;18.00;66.30;;;;;;5067779;28;43431;-77
2023/04/27 09:18:37;;;;;;;9.07;5.33;;;18.10;66.40;;;;;;5067135;28;43858;-77
2023/04/27 09:21:05;;;;;;;12.00;4.87;;;18.10;66.10;;;;;;5056712;28;43520;-78
2023/04/27 09:23:35;;;;;;;8.17;4.37;;;18.10;65.90;;;;;;5065423;28;45654;-78
2023/04/27 09:26:05;;;;;;;10.13;4.57;;;18.10;66.10;;;;;;5071530;28;43382;-78
2023/04/27 09:28:35;;;;;;;9.20;4.53;;;18.10;66.10;;;;;;5064806;28;43434;-78
2023/04/27 09:31:04;;;;;;;8.60;4.63;;;18.10;66.20;;;;;;5068126;28;43418;-78
2023/04/27 09:33:32;;;;;;;7.30;4.57;;;18.10;66.10;;;;;;5072513;28;43594;-78
2023/04/27 09:36:03;;;;;;;6.70;4.30;;;18.10;66.30;;;;;;5070278;28;44462;-77
2023/04/27 09:38:32;;;;;;;7.03;4.67;;;18.10;66.40;;;;;;5067996;28;43439;-79
2023/04/27 09:41:00;;;;;;;8.73;4.60;;;18.00;66.20;;;;;;5070858;28;43745;-77
2023/04/27 09:43:29;;;;;;;8.97;4.87;;;18.00;66.30;;;;;;5068910;28;45993;-78
2023/04/27 09:45:59;;;;;;;8.20;4.87;;;18.00;66.20;;;;;;5068291;28;43462;-78
2023/04/27 09:48:27;;;;;;;7.63;4.60;;;18.00;66.20;;;;;;5061314;28;43756;-80
2023/04/27 09:50:55;;;;;;;6.83;4.40;;;18.00;66.20;;;;;;5063852;28;44136;-78
2023/04/27 09:53:25;;;;;;;6.83;4.50;;;18.00;66.30;;;;;;5063789;28;45988;-77
2023/04/27 09:55:59;;;;;;;8.30;4.50;;;18.00;66.30;;;;;;5067315;28;43426;-77
2023/04/27 09:58:45;;;;;;;5.17;4.37;;;18.00;66.20;;;;;;5067626;28;43407;-77
2023/04/27 10:01:18;;;;;;;8.10;4.53;;;18.00;66.20;;;;;;5060754;28;43476;-77
2023/04/27 10:03:51;;;;;;;7.67;5.03;;;18.10;66.40;;;;;;5064029;28;45449;-77
2023/04/27 10:06:56;;;;;;;8.93;5.10;;;18.20;65.90;;;;;;5047768;28;45184;-77
2023/04/27 10:09:25;;;;;;;6.97;4.50;;;18.20;65.50;;;;;;5029747;28;43446;-77
2023/04/27 10:11:53;;;;;;;7.33;4.50;;;18.20;65.50;;;;;;5062476;28;43600;-77
2023/04/27 10:14:22;;;;;;;8.67;4.83;;;18.20;65.70;;;;;;5067380;28;43669;-77
2023/04/27 10:16:53;;;;;;;8.43;4.37;;;18.20;66.30;;;;;;5066451;28;45027;-77
2023/04/27 10:19:21;;;;;;;6.80;4.43;;;18.20;65.40;;;;;;5067390;28;43530;-77
2023/04/27 10:21:56;;;;;;;4.93;4.03;;;18.20;65.50;;;;;;5066671;28;43682;-78
2023/04/27 10:24:35;;;;;;;6.43;4.30;;;18.10;65.40;;;;;;5038659;28;46907;-77
2023/04/27 10:27:07;;;;;;;8.37;4.83;;;18.10;65.60;;;;;;5058559;28;43375;-77
2023/04/27 10:29:37;;;;;;;6.23;4.33;;;18.10;66.10;;;;;;5047866;28;43403;-77
2023/04/27 10:32:11;;;;;;;5.53;4.03;;;18.10;65.60;;;;;;5064614;28;43575;-76
2023/04/27 10:34:40;;;;;;;4.10;3.80;;;18.10;65.90;;;;;;5062380;28;45964;-77
2023/04/27 10:37:09;;;;;;;4.97;3.63;;;18.00;66.10;;;;;;5069045;28;43460;-77
2023/04/27 10:39:38;;;;;;;5.57;4.50;;;18.00;66.20;;;;;;5069416;28;43440;-77
2023/04/27 10:42:26;;;;;;;6.07;4.37;;;18.00;66.20;;;;;;5062193;28;43460;-76
2023/04/27 10:44:54;;;;;;;6.03;4.30;;;18.00;66.20;;;;;;5066996;28;45650;-77
2023/04/27 10:47:24;;;;;;;7.53;4.40;;;18.00;66.20;;;;;;5068835;28;43444;-75
2023/04/27 10:49:53;;;;;;;5.50;4.27;;;18.00;66.30;;;;;;5067203;28;43391;-77
2023/04/27 10:52:21;;;;;;;5.07;4.30;;;18.00;66.50;;;;;;5067691;28;43460;-77
2023/04/27 10:54:49;;;;;;;4.37;4.03;;;18.00;66.60;;;;;;5061794;28;43959;-77
2023/04/27 10:57:16;;;;;;;5.43;4.07;;;18.00;66.40;;;;;;5067588;28;45110;-77
2023/04/27 10:59:48;;;;;;;4.23;3.43;;;18.00;66.20;;;;;;5068879;28;43445;-77
2023/04/27 11:02:16;;;;;;;5.07;3.80;;;18.10;66.10;;;;;;5055893;28;43451;-78
2023/04/27 11:04:46;;;;;;;3.83;3.53;;;18.20;65.70;;;;;;5064085;28;43986;-77
2023/04/27 11:07:23;;;;;;;4.90;3.90;;;18.30;65.50;;;;;;5059945;28;45084;-77
2023/04/27 11:09:51;;;;;;;6.10;4.30;;;18.30;65.60;;;;;;5063575;28;43433;-77
2023/04/27 11:12:20;;;;;;;4.57;3.80;;;18.30;65.70;;;;;;5063893;28;43518;-77
2023/04/27 11:14:48;;;;;;;4.20;3.70;;;18.30;65.60;;;;;;5065456;28;45977;-78
2023/04/27 11:17:16;;;;;;;5.63;3.90;;;18.30;65.70;;;;;;5066694;28;44698;-77
2023/04/27 11:19:47;;;;;;;4.80;3.77;;;18.20;65.80;;;;;;5058232;28;43383;-76
2023/04/27 11:22:16;;;;;;;3.60;3.30;;;18.20;65.90;;;;;;5068541;28;43706;-77
2023/04/27 11:24:48;;;;;;;3.80;3.50;;;18.20;66.10;;;;;;5065023;28;45688;-77
2023/04/27 11:27:16;;;;;;;3.90;3.60;;;18.10;66.10;;;;;;5057693;28;45127;-77
2023/04/27 11:29:45;;;;;;;5.07;4.00;;;18.10;66.00;;;;;;5061065;28;43432;-78
2023/04/27 11:32:19;;;;;;;4.00;3.63;;;18.10;66.10;;;;;;5060242;28;43688;-78
2023/04/27 11:34:52;;;;;;;3.63;3.33;;;18.10;66.10;;;;;;5061518;28;46066;-78
2023/04/27 11:37:24;;;;;;;4.20;3.80;;;18.10;66.30;;;;;;5060101;28;44778;-77
2023/04/27 11:39:53;;;;;;;3.43;3.20;;;18.10;66.40;;;;;;5058193;28;43301;-77
2023/04/27 11:42:22;;;;;;;4.07;3.70;;;18.10;66.30;;;;;;5054731;28;43428;-77
2023/04/27 11:44:52;;;;;;;3.53;3.17;;;18.10;66.10;;;;;;5057805;28;46045;-78
2023/04/27 11:47:21;;;;;;;4.20;3.80;;;18.20;65.90;;;;;;5061285;28;43481;-78
2023/04/27 11:49:50;;;;;;;3.50;3.07;;;18.20;65.50;;;;;;5057883;28;43407;-77
2023/04/27 11:52:19;;;;;;;5.37;3.00;;;18.30;65.70;;;;;;5061752;28;43856;-77
2023/04/27 11:54:51;;;;;;;4.00;3.30;;;18.20;65.70;;;;;;5067918;28;43932;-78
2023/04/27 11:57:24;;;;;;;4.63;3.23;;;18.20;65.70;;;;;;5066306;28;44706;-77
2023/04/27 11:59:53;;;;;;;3.00;2.80;;;18.20;65.80;;;;;;5056012;28;43406;-76
2023/04/27 12:02:21;;;;;;;3.80;3.00;;;18.20;65.90;;;;;;5060233;28;43550;-77
2023/04/27 12:04:50;;;;;;;3.67;3.27;;;18.20;66.00;;;;;;5060029;28;43855;-76
2023/04/27 12:07:20;;;;;;;4.97;3.10;;;18.20;66.10;;;;;;5064998;28;45186;-76
2023/04/27 12:09:48;;;;;;;6.17;3.10;;;18.10;66.10;;;;;;5069563;28;43383;-78
2023/04/27 12:12:17;;;;;;;3.53;3.23;;;18.10;66.20;;;;;;5057956;28;43982;-75
2023/04/27 12:14:45;;;;;;;3.07;2.87;;;18.10;66.20;;;;;;5065172;28;43728;-78
2023/04/27 12:17:13;;;;;;;3.37;3.10;;;18.10;66.30;;;;;;5059593;28;44610;-78
2023/04/27 12:19:41;;;;;;;3.17;2.97;;;18.10;66.40;;;;;;5066164;28;43444;-78
2023/04/27 12:22:10;;;;;;;3.50;3.07;;;18.10;66.40;;;;;;5066615;28;43861;-78
2023/04/27 12:24:39;;;;;;;3.50;3.23;;;18.10;66.40;;;;;;5066934;28;44028;-78
2023/04/27 12:27:08;;;;;;;5.93;3.17;;;18.10;66.40;;;;;;5057936;28;43425;-76
2023/04/27 12:29:36;;;;;;;3.20;2.93;;;18.10;66.40;;;;;;5062643;28;44540;-79
2023/04/27 12:32:05;;;;;;;3.03;2.87;;;18.10;66.40;;;;;;5064778;28;43432;-75
2023/04/27 12:34:33;;;;;;;2.90;2.70;;;18.10;66.40;;;;;;5056897;28;44113;-76
2023/04/27 12:37:04;;;;;;;3.00;2.80;;;18.10;66.40;;;;;;5061807;28;43525;-78
2023/04/27 12:39:32;;;;;;;2.90;2.70;;;18.10;66.50;;;;;;5064015;28;43455;-79
2023/04/27 12:42:02;;;;;;;2.87;2.67;;;18.10;66.70;;;;;;5062556;28;43357;-78
2023/04/27 12:44:33;;;;;;;3.43;2.80;;;18.20;66.40;;;;;;5049670;28;43701;-79
2023/04/27 12:47:02;;;;;;;3.17;2.80;;;18.30;66.30;;;;;;5062707;28;45103;-76
2023/04/27 12:49:31;;;;;;;2.87;2.67;;;18.30;66.00;;;;;;5061483;28;43435;-77
2023/04/27 12:51:59;;;;;;;3.33;2.83;;;18.30;66.00;;;;;;5068507;28;43669;-76
2023/04/27 12:54:27;;;;;;;2.80;2.60;;;18.30;66.10;;;;;;5062041;28;43955;-78